Time;durP1;ratioP1;P1;durP2;ratioP2;P2;SDS_P1;SDS_P2;PMS_P1;PMS_P2;Temp;Humidity;BMP_temperature;BMP_pressure;BME280_temperature;BME280_humidity;BME280_pressure;Samples;Min_cycle;Max_cycle;Signal;HPM_P1;HPM_P2
2021/01/08 06:49:33;;;;;;;;;;;0.90;99.90;;;;;;6151714;23;19920;31
2021/01/08 11:26:26;;;;;;;;;;;1.80;99.90;;;;;;5053692;22;20415;-87
2021/01/08 11:28:51;;;;;;;;;;;1.70;99.90;;;;;;5032843;28;19929;-86
2021/01/08 11:31:17;;;;;;;;;;;1.70;99.90;;;;;;5140123;23;19928;-86
2021/01/08 11:33:46;;;;;;;;;;;1.70;99.90;;;;;;5071862;28;19917;-87
2021/01/08 11:36:12;;;;;;;;;;;1.70;99.90;;;;;;5071479;28;19919;-86
2021/01/08 11:38:40;;;;;;;;;;;1.70;99.90;;;;;;5072333;28;19913;-86
2021/01/08 11:41:06;;;;;;;;;;;1.70;99.90;;;;;;5058961;28;19912;-85
2021/01/08 11:43:31;;;;;;;;;;;1.70;99.90;;;;;;5056156;28;19962;-86
2021/01/08 11:45:57;;;;;;;;;;;1.70;99.90;;;;;;5072013;28;19924;-86
2021/01/08 11:48:22;;;;;;;;;;;1.70;99.90;;;;;;5057265;28;19919;-86
2021/01/08 11:50:48;;;;;;;;;;;1.80;99.90;;;;;;5071525;28;19920;-86
2021/01/08 11:53:13;;;;;;;;;;;1.90;99.90;;;;;;5070853;28;20008;-86
2021/01/08 11:55:39;;;;;;;;;;;1.90;99.90;;;;;;5071107;28;19995;-86
2021/01/08 11:58:05;;;;;;;;;;;1.90;99.90;;;;;;5067929;28;19920;-86
2021/01/08 12:00:30;;;;;;;;;;;2.00;99.90;;;;;;5062958;28;19998;-86
2021/01/08 12:02:57;;;;;;;;;;;2.00;99.90;;;;;;5067775;28;19913;-86
2021/01/08 12:05:27;;;;;;;;;;;2.00;99.90;;;;;;5162332;22;19925;-87
2021/01/08 12:07:57;;;;;;;;;;;1.90;99.90;;;;;;5022586;28;19929;-87
2021/01/08 13:00:04;;;;;;;;;;;2.10;99.90;;;;;;5011894;28;20457;-87
2021/01/08 13:02:32;;;;;;;;;;;2.20;99.90;;;;;;4993795;28;19924;-85
2021/01/08 13:05:00;;;;;;;;;;;2.10;99.90;;;;;;4994282;28;19936;-87
2021/01/08 13:07:28;;;;;;;;;;;2.10;99.90;;;;;;4994230;28;20369;-88
2021/01/08 13:09:54;;;;;;;;;;;2.20;99.90;;;;;;4994343;28;19917;-86
2021/01/08 13:12:19;;;;;;;;;;;2.20;99.90;;;;;;4993584;28;20398;-86
2021/01/08 13:14:45;;;;;;;;;;;2.20;99.90;;;;;;4994315;28;19914;-86
2021/01/08 13:17:13;;;;;;;;;;;2.10;99.90;;;;;;5011462;28;19913;-86
2021/01/08 13:19:41;;;;;;;;;;;2.10;99.90;;;;;;4993929;28;19914;-87
2021/01/08 13:22:09;;;;;;;;;;;2.10;99.90;;;;;;5010104;28;20040;-86
2021/01/08 13:24:36;;;;;;;;;;;2.10;99.90;;;;;;5157371;23;19943;-86
2021/01/08 13:27:02;;;;;;;;;;;2.10;99.90;;;;;;5059108;28;19913;-86
2021/01/08 13:29:27;;;;;;;;;;;2.10;99.90;;;;;;5055142;28;20369;-86
2021/01/08 13:31:53;;;;;;;;;;;2.10;99.90;;;;;;5061915;28;19917;-86
2021/01/08 13:34:18;;;;;;;;;;;2.10;99.90;;;;;;5054894;28;19913;-86
2021/01/08 13:36:46;;;;;;;;;;;2.10;99.90;;;;;;5055174;28;19913;-86
2021/01/08 13:39:14;;;;;;;;;;;2.00;99.90;;;;;;5052436;28;19912;-86
2021/01/08 13:41:40;;;;;;;;;;;2.00;99.90;;;;;;5049462;28;19912;-87
2021/01/08 13:44:10;;;;;;;;;;;2.00;99.90;;;;;;5049614;28;19919;-85
2021/01/08 13:46:38;;;;;;;;;;;2.00;99.90;;;;;;5049494;28;19916;-85
2021/01/08 13:49:04;;;;;;;;;;;2.00;99.90;;;;;;5049449;28;20298;-86
2021/01/08 13:51:30;;;;;;;;;;;2.00;99.90;;;;;;5052337;28;21113;-85
2021/01/08 13:53:56;;;;;;;;;;;2.00;99.90;;;;;;5061133;28;19913;-86
2021/01/08 13:56:25;;;;;;;;;;;1.90;99.90;;;;;;5049172;28;20291;-86
2021/01/08 13:58:51;;;;;;;;;;;1.90;99.90;;;;;;5055648;28;19971;-86
2021/01/08 14:01:21;;;;;;;;;;;1.90;99.90;;;;;;5161707;22;20395;-88
2021/01/08 14:03:50;;;;;;;;;;;1.90;99.90;;;;;;5037951;28;19966;-88
2021/01/08 14:06:23;;;;;;;;;;;1.90;99.90;;;;;;5040633;28;19942;-87
2021/01/08 14:08:50;;;;;;;;;;;1.90;99.90;;;;;;5055735;28;19962;-88
2021/01/08 14:11:31;;;;;;;;;;;1.90;99.90;;;;;;5037134;28;19913;-88
2021/01/08 15:36:41;;;;;;;;;;;1.40;99.90;;;;;;5054529;22;20626;-87
2021/01/08 15:39:06;;;;;;;;;;;1.40;99.90;;;;;;5040392;28;19987;-88
2021/01/08 15:41:32;;;;;;;;;;;1.40;99.90;;;;;;5034598;28;19963;-88
2021/01/08 15:44:02;;;;;;;;;;;1.40;99.90;;;;;;5035251;28;20463;-87
2021/01/08 15:46:28;;;;;;;;;;;1.40;99.90;;;;;;5035089;28;19913;-87
2021/01/08 15:48:56;;;;;;;;;;;1.30;99.90;;;;;;5035133;28;19958;-86
2021/01/08 15:51:28;;;;;;;;;;;1.40;99.90;;;;;;5034836;28;19923;-87
2021/01/08 15:53:59;;;;;;;;;;;1.30;99.90;;;;;;5035401;28;20038;-87
2021/01/08 15:56:24;;;;;;;;;;;1.30;99.90;;;;;;5052631;28;19923;-86
2021/01/08 15:58:52;;;;;;;;;;;1.30;99.90;;;;;;5035119;28;19913;-87
2021/01/08 16:01:20;;;;;;;;;;;1.30;99.90;;;;;;5021266;28;19995;-87
2021/01/08 16:03:46;;;;;;;;;;;1.30;99.90;;;;;;5034724;28;19913;-87
2021/01/08 16:06:11;;;;;;;;;;;1.30;99.90;;;;;;5170535;23;20371;-87
2021/01/08 16:08:37;;;;;;;;;;;1.30;99.90;;;;;;5071435;28;20374;-87
2021/01/08 16:11:02;;;;;;;;;;;1.20;99.90;;;;;;5145001;22;20433;-87
2021/01/08 16:13:30;;;;;;;;;;;1.30;99.90;;;;;;5029623;28;19919;-87
2021/01/08 16:15:56;;;;;;;;;;;1.20;99.90;;;;;;5026504;28;19940;-88
2021/01/08 16:18:21;;;;;;;;;;;1.20;99.90;;;;;;5028253;28;19917;-87
2021/01/08 16:20:47;;;;;;;;;;;1.20;99.90;;;;;;5034699;28;19912;-87
2021/01/08 16:23:13;;;;;;;;;;;1.20;99.90;;;;;;5034397;28;19913;-88
2021/01/08 16:25:39;;;;;;;;;;;1.20;99.90;;;;;;5165985;22;20185;-88
2021/01/08 16:30:45;;;;;;;;;;;1.20;99.90;;;;;;5322652;22;19936;-88
2021/01/08 16:33:13;;;;;;;;;;;1.20;99.90;;;;;;5034203;28;20375;-88
2021/01/08 16:35:39;;;;;;;;;;;1.20;99.90;;;;;;5034236;28;19976;-88
2021/01/08 16:38:04;;;;;;;;;;;1.20;99.90;;;;;;5145930;23;20023;-87
2021/01/08 16:40:30;;;;;;;;;;;1.10;99.90;;;;;;5138695;23;19928;-88
2021/01/08 16:42:56;;;;;;;;;;;1.20;99.90;;;;;;5027686;28;20279;-87
2021/01/08 16:45:24;;;;;;;;;;;1.10;99.90;;;;;;5011233;28;19956;-87
2021/01/08 16:47:49;;;;;;;;;;;1.10;99.90;;;;;;5012723;28;19964;-88
2021/01/08 16:50:15;;;;;;;;;;;1.20;99.90;;;;;;5014887;28;19964;-87
2021/01/08 16:52:40;;;;;;;;;;;1.20;99.90;;;;;;5020726;28;20274;-88
2021/01/08 16:55:09;;;;;;;;;;;1.20;99.90;;;;;;5026947;28;19913;-88
2021/01/08 16:57:40;;;;;;;;;;;1.20;99.90;;;;;;5029125;28;19917;-87
2021/01/08 17:12:37;;;;;;;;;;;1.20;99.90;;;;;;5050522;23;19948;-87
2021/01/08 17:15:04;;;;;;;;;;;1.10;99.90;;;;;;5052312;28;19931;-87
2021/01/08 17:17:32;;;;;;;;;;;1.20;99.90;;;;;;5175792;23;19932;-85
2021/01/08 17:19:57;;;;;;;;;;;1.10;99.90;;;;;;5072253;28;19987;-86
2021/01/08 17:22:25;;;;;;;;;;;1.20;99.90;;;;;;5068964;28;20007;-86
2021/01/08 17:24:51;;;;;;;;;;;1.10;99.90;;;;;;5063398;28;19959;-86
2021/01/08 17:27:22;;;;;;;;;;;1.20;99.90;;;;;;5076509;28;19963;-86
2021/01/08 17:29:47;;;;;;;;;;;1.20;99.90;;;;;;5059116;28;19923;-86
2021/01/08 17:32:13;;;;;;;;;;;1.10;99.90;;;;;;5069166;28;19916;-86
2021/01/08 17:34:38;;;;;;;;;;;1.10;99.90;;;;;;5069842;28;19912;-86
2021/01/08 17:37:06;;;;;;;;;;;1.10;99.90;;;;;;5066104;28;19959;-86
2021/01/08 17:39:32;;;;;;;;;;;1.20;99.90;;;;;;5072005;28;20340;-85
2021/01/08 17:41:58;;;;;;;;;;;1.10;99.90;;;;;;5052093;28;19995;-86
2021/01/08 17:44:24;;;;;;;;;;;1.20;99.90;;;;;;5072211;28;19924;-86
2021/01/08 17:46:53;;;;;;;;;;;1.20;99.90;;;;;;5175267;22;19932;-85
2021/01/08 17:49:18;;;;;;;;;;;1.10;99.90;;;;;;5165986;22;19920;-88
2021/01/08 17:51:49;;;;;;;;;;;1.10;99.90;;;;;;5067799;28;19917;-89
2021/01/08 17:54:14;;;;;;;;;;;1.10;99.90;;;;;;5186330;22;19994;-86
2021/01/08 17:56:40;;;;;;;;;;;1.10;99.90;;;;;;5272276;22;20042;-86
2021/01/08 17:59:06;;;;;;;;;;;1.20;99.90;;;;;;5269747;22;20237;-88
2021/01/08 18:01:34;;;;;;;;;;;1.20;99.90;;;;;;5153869;22;20007;-87
2021/01/08 18:04:00;;;;;;;;;;;1.10;99.90;;;;;;5012916;28;20324;-87
2021/01/08 18:06:26;;;;;;;;;;;1.10;99.90;;;;;;5011964;28;19916;-87
2021/01/08 18:08:54;;;;;;;;;;;1.10;99.90;;;;;;5127002;22;19929;-88
2021/01/08 18:11:23;;;;;;;;;;;1.10;99.90;;;;;;5155946;22;19925;-86
2021/01/08 18:13:49;;;;;;;;;;;1.10;99.90;;;;;;5136358;22;19929;-86
2021/01/08 18:16:14;;;;;;;;;;;1.10;99.90;;;;;;5030668;28;19963;-87
2021/01/08 18:18:40;;;;;;;;;;;1.10;99.90;;;;;;5267987;22;19932;-87
2021/01/08 18:21:05;;;;;;;;;;;1.10;99.90;;;;;;5045846;28;19921;-86
2021/01/08 18:23:31;;;;;;;;;;;1.10;99.90;;;;;;5045080;28;19909;-86
2021/01/08 18:25:56;;;;;;;;;;;1.10;99.90;;;;;;5039844;28;19935;-86
2021/01/08 18:28:22;;;;;;;;;;;1.10;99.90;;;;;;5259999;22;19964;-87
2021/01/08 18:30:48;;;;;;;;;;;1.10;99.90;;;;;;5174308;22;19982;-88
2021/01/08 18:33:17;;;;;;;;;;;1.10;99.90;;;;;;5171795;22;19933;-89
2021/01/08 18:35:42;;;;;;;;;;;1.00;99.90;;;;;;5056056;28;19993;-85
2021/01/08 18:38:08;;;;;;;;;;;1.10;99.90;;;;;;5047229;28;20415;-86
2021/01/08 18:40:34;;;;;;;;;;;1.10;99.90;;;;;;5039613;28;19917;-87
2021/01/08 18:42:59;;;;;;;;;;;1.00;99.90;;;;;;5038463;28;19913;-86
2021/01/08 18:45:25;;;;;;;;;;;1.00;99.90;;;;;;5040943;28;19912;-85
2021/01/08 18:47:51;;;;;;;;;;;1.10;99.90;;;;;;5037725;28;20299;-85
2021/01/08 18:50:19;;;;;;;;;;;1.10;99.90;;;;;;5043872;28;19920;-85
2021/01/08 18:52:45;;;;;;;;;;;1.10;99.90;;;;;;5050632;28;19921;-86
2021/01/08 18:55:11;;;;;;;;;;;1.10;99.90;;;;;;5048852;28;19913;-86
2021/01/08 18:57:37;;;;;;;;;;;1.10;99.90;;;;;;5048746;28;19919;-86
2021/01/08 19:00:03;;;;;;;;;;;1.10;99.90;;;;;;5049102;28;19913;-86
2021/01/08 19:02:29;;;;;;;;;;;1.00;99.90;;;;;;5049137;28;19970;-86
2021/01/08 19:04:54;;;;;;;;;;;1.00;99.90;;;;;;5048865;28;19909;-87
2021/01/08 19:07:20;;;;;;;;;;;1.00;99.90;;;;;;5048459;28;20390;-87
2021/01/08 19:09:45;;;;;;;;;;;1.00;99.90;;;;;;5049557;28;20335;-86
2021/01/08 19:12:11;;;;;;;;;;;1.00;99.90;;;;;;5052539;28;19912;-88
2021/01/08 19:14:40;;;;;;;;;;;1.00;99.90;;;;;;5053062;28;19921;-89
2021/01/08 19:17:06;;;;;;;;;;;1.00;99.90;;;;;;5052960;28;19909;-86
2021/01/08 19:19:31;;;;;;;;;;;1.00;99.90;;;;;;5052456;28;19919;-86
2021/01/08 19:21:57;;;;;;;;;;;1.00;99.90;;;;;;5039903;28;19909;-86
2021/01/08 19:24:23;;;;;;;;;;;1.00;99.90;;;;;;5034137;28;19939;-86
2021/01/08 19:29:26;;;;;;;;;;;1.00;99.90;;;;;;5326841;22;19928;-87
2021/01/08 19:31:54;;;;;;;;;;;1.00;99.90;;;;;;5158334;22;19929;-90
2021/01/08 19:34:22;;;;;;;;;;;1.00;99.90;;;;;;5016723;28;20443;-90
2021/01/08 19:36:48;;;;;;;;;;;1.00;99.90;;;;;;5136220;22;20027;-89
2021/01/08 19:39:14;;;;;;;;;;;1.00;99.90;;;;;;5278349;22;19924;-88
2021/01/08 19:41:40;;;;;;;;;;;1.00;99.90;;;;;;5073987;28;19924;-88
2021/01/08 19:46:50;;;;;;;;;;;1.00;99.90;;;;;;5174002;22;19935;-90
2021/01/08 19:49:17;;;;;;;;;;;1.00;99.90;;;;;;5074731;28;19917;-90
2021/01/08 19:51:43;;;;;;;;;;;1.00;99.90;;;;;;5074483;28;19915;-89
2021/01/08 19:54:08;;;;;;;;;;;1.00;99.90;;;;;;5283663;22;19967;-82
2021/01/08 19:56:41;;;;;;;;;;;1.00;99.90;;;;;;5282790;22;19929;-88
2021/01/08 19:59:25;;;;;;;;;;;1.00;99.90;;;;;;5037434;28;19920;-89
2021/01/08 20:01:51;;;;;;;;;;;1.00;99.90;;;;;;5055351;28;19916;-88
2021/01/08 20:04:17;;;;;;;;;;;1.00;99.90;;;;;;5037820;28;19909;-88
2021/01/08 20:06:43;;;;;;;;;;;1.00;99.90;;;;;;5037581;28;19920;-88
2021/01/08 20:09:08;;;;;;;;;;;1.00;99.90;;;;;;5037539;28;19938;-88
2021/01/08 20:11:36;;;;;;;;;;;1.00;99.90;;;;;;5037615;28;19990;-90
2021/01/08 20:14:02;;;;;;;;;;;1.00;99.90;;;;;;5037179;28;19912;-88
2021/01/08 20:16:28;;;;;;;;;;;0.90;99.90;;;;;;5774242;22;19981;-89
2021/01/08 20:18:53;;;;;;;;;;;0.90;99.90;;;;;;5016261;28;19917;-88
2021/01/08 20:21:22;;;;;;;;;;;1.00;99.90;;;;;;5025445;28;20002;-88
2021/01/08 20:23:47;;;;;;;;;;;0.90;99.90;;;;;;5037247;28;19909;-89
2021/01/08 20:26:13;;;;;;;;;;;1.00;99.90;;;;;;5037259;28;19955;-88
2021/01/08 20:28:39;;;;;;;;;;;1.00;99.90;;;;;;5152940;22;19925;-88
2021/01/08 20:31:04;;;;;;;;;;;0.90;99.90;;;;;;5053289;28;19924;-87
2021/01/08 20:33:32;;;;;;;;;;;0.90;99.90;;;;;;5052698;28;19924;-87
2021/01/08 20:36:06;;;;;;;;;;;0.90;99.90;;;;;;5052438;28;19913;-88
2021/01/08 20:38:34;;;;;;;;;;;1.00;99.90;;;;;;5052338;28;20067;-87
2021/01/08 20:41:02;;;;;;;;;;;0.90;99.90;;;;;;5274732;22;19931;-87
2021/01/08 20:43:28;;;;;;;;;;;0.90;99.90;;;;;;5261863;22;19935;-86
2021/01/08 20:45:55;;;;;;;;;;;0.90;99.90;;;;;;5034321;28;19921;-86
2021/01/08 20:48:21;;;;;;;;;;;0.90;99.90;;;;;;5155493;23;19928;-88
2021/01/08 20:50:47;;;;;;;;;;;1.00;99.90;;;;;;5057077;28;19927;-88
2021/01/08 20:53:12;;;;;;;;;;;1.00;99.90;;;;;;5057464;28;20356;-90
2021/01/08 20:55:38;;;;;;;;;;;0.90;99.90;;;;;;5171664;22;19936;-87
2021/01/08 21:00:41;;;;;;;;;;;0.90;99.90;;;;;;5102099;22;19929;-86
2021/01/08 21:03:09;;;;;;;;;;;1.00;99.90;;;;;;5034266;28;19932;-87
2021/01/08 21:05:37;;;;;;;;;;;1.00;99.90;;;;;;5287707;22;19925;-90
2021/01/08 21:08:06;;;;;;;;;;;1.00;99.90;;;;;;5462125;22;19923;-86
2021/01/08 21:10:32;;;;;;;;;;;0.90;99.90;;;;;;5151039;23;20371;-87
2021/01/08 21:12:58;;;;;;;;;;;1.00;99.90;;;;;;5053286;28;19924;-90
2021/01/08 21:15:26;;;;;;;;;;;1.00;99.90;;;;;;5052506;28;19913;-89
2021/01/08 21:17:52;;;;;;;;;;;1.00;99.90;;;;;;5053003;28;20325;-88
2021/01/08 21:20:21;;;;;;;;;;;1.00;99.90;;;;;;5053140;28;19999;-89
2021/01/08 21:25:24;;;;;;;;;;;1.00;99.90;;;;;;5050701;22;19933;-88
2021/01/08 21:27:50;;;;;;;;;;;1.00;99.90;;;;;;5148099;23;19977;-88
2021/01/08 21:41:20;;;;;;;;;;;1.00;99.90;;;;;;5486108;22;19931;31
2021/01/08 21:43:46;;;;;;;;;;;1.00;99.90;;;;;;5434867;22;19923;-86
2021/01/08 21:46:14;;;;;;;;;;;1.00;99.90;;;;;;5571357;22;19933;-85
